Welcome to our new website - Welkom op onze vernieuwde website - Bienvenue sur notre nouveau site web - Willkommen auf unserer neuen Website
Check our progress frequently. Prüfen Sie unsere Fortschritte regelmäßig. Consultez notre progression fréquemment. Komt u straks nog eens

KNMI Weersverwachting is alleen beschikbaar in de Nederlandse Taal, Ongeacht welke taal u kiest.
KNMI weather forecast is only available in the Dutch language, No matter what language you choose.







Meteo Oudkarspel - De weer weet site voor Langedijk

Blijf op de hoogte van het actuele weer, Keep up to date with the current weather.



Lokaal brandgevaar
CBI


Regionaal natuur brand risico: Meer informatie


Mijn Webcam 1 Meer informatie My webcam


Mijn Webcam 2 Meer informatie My webcam 2


Onweer radar Meer informatie blitzortung!


Regen radar Meer informatie rain snow radar


Bezoek onze andere website:

Template - Davis WeatherLink Version
Vantage Veu

Template - Meteotemplate

Template - HomeWeatherStation

PDøROK Multimedia

Meteo Broek Op Langedijk

Visual FM - Serious Internet RadioVisual FM - Serious Internet Radio

Lief LangedijkLief Langedijk

Dé fietsenmaker van Langedijk en omstrekenAxel Noort dé fietsenmaker

Ijsvereniging Volharding

Meteo Tuitjenhorn

Meteo Delfzijl

Weerstation Noordbergum

Weerstation ParkstadWeerstation Parkstad



Het weer levert geen direct gevaar op.    Er zijn geen waarschuwingen afgegeven.

METAR rapporten vliegvelden

   
EHKD - De Kooy (navy), Netherlands
Afstand tot: N 23 km
Gewijzigd: 04-Mar-2021 03:43
Nevel, Bewolking  
Nevel, Bewolking  
   Wind: Noorden 7.4 km/h
Wind: Noorden 7.4 km/h
Temperatuur: 4°C
Voelt als: 2°C
Dauwpunt: 2°C
Vochtigheid: 87%
Barometer: 1023 hPa
Bewolking: Bewolking
Zicht: 6 km
Bewolking: Bewolking 500 ft
EHKD 040243Z AUTO 35004KT 300V030 6000 BR OVC005 04/02 Q1023 YLO
EHAM - Amsterdam/Schiph, Netherlands
Afstand tot: Z 44 km
Gewijzigd: 04-Mar-2021 03:25
Nevel, Bewolking  
Nevel, Bewolking  
   Wind: Noorden 11.1 km/h
Wind: Noorden 11.1 km/h
Temperatuur: 4°C
Voelt als: 1°C
Dauwpunt: 3°C
Vochtigheid: 93%
Barometer: 1023 hPa
Bewolking: Bewolking
Zicht: 4 km
Bewolking: Bewolking 400 ft
EHAM 040225Z 36006KT 320V030 3500 BR OVC004 04/03 Q1023 BECMG BKN005
EHQE - Hoorn-A Sea, Netherlands
Afstand tot: WNW 50 km
Gewijzigd: 04-Mar-2021 03:25
Bewolking  
Bewolking  
   Wind: Noorden 9.3 km/h
Wind: Noorden 9.3 km/h
Temperatuur: 4°C
Voelt als: 2°C
Dauwpunt: 2°C
Vochtigheid: 87%
Barometer: 1023 hPa
Bewolking: Bewolking
Zicht: 7 km
Bewolking: Grotendeels bewolkt 400 ft,
Bewolking 500 ft
EHQE 040225Z AUTO 35005KT 7000 BKN004 OVC005 04/02 Q1023
EHVL - Vlieland Island, Netherlands
Afstand tot: N 58 km
Gewijzigd: 04-Mar-2021 03:55
Bewolking  
Bewolking  
   Wind: Noorden 14.8 km/h
Wind: Noorden 14.8 km/h
Temperatuur: 3°C
Voelt als: -1°C
Dauwpunt: 2°C
Vochtigheid: 93%
Barometer: 1023 hPa
Bewolking: Bewolking
Zicht: meer dan 10 km
Bewolking: Gedeeltelijk bewolkt 500 ft,
Grotendeels bewolkt 700 ft,
Bewolking 800 ft
EHVL 040255Z AUTO 36008KT 9999 SCT005 BKN007 OVC008 03/02 Q1023 YLO
EHLW - Leeuwarden Rnlaf, Netherlands
Afstand tot: NO 85 km
Gewijzigd: 04-Mar-2021 03:55
Nevel, Bewolking  
Nevel, Bewolking  
   Wind: Noorden 9.3 km/h
Wind: Noorden 9.3 km/h
Temperatuur: 3°C
Voelt als: 1°C
Dauwpunt: 2°C
Vochtigheid: 93%
Barometer: 1023 hPa
Bewolking: Bewolking
Zicht: 6 km
Bewolking: Grotendeels bewolkt 400 ft,
Bewolking 500 ft
EHLW 040255Z AUTO 35005KT 300V020 6000 BR BKN004 OVC005 03/02 Q1023 YLO
EHRD - Rotterdam Airpor, Netherlands
Afstand tot: ZZW 88 km
Gewijzigd: 04-Mar-2021 03:25
Nevel, Bewolking  
Nevel, Bewolking  
   Wind: Noorden 7.4 km/h
Wind: Noorden 7.4 km/h
Temperatuur: 4°C
Voelt als: 2°C
Dauwpunt: 4°C
Vochtigheid: 100%
Barometer: 1023 hPa
Bewolking: Bewolking
Zicht: 2 km
Bewolking: Bewolking 200 ft
EHRD 040225Z AUTO 35004KT 310V020 2300 BR OVC002 04/04 Q1023 NOSIG
EHKV - K14-Fa-1c Sea, Netherlands
Afstand tot: NW 100 km
Gewijzigd: 04-Mar-2021 03:25
Bewolking  
Bewolking  
   Wind: NO 16.7 km/h
Wind: NO 16.7 km/h
Temperatuur: 4°C
Voelt als: 0°C
Dauwpunt: 3°C
Vochtigheid: 93%
Barometer: 1023 hPa
Bewolking: Bewolking
Zicht: meer dan 10 km
Bewolking: Grotendeels bewolkt 500 ft,
Bewolking 600 ft
EHKV 040225Z AUTO 04009KT 9999 BKN005 OVC006 04/03 Q1023
EHMG - L9-Ff-1 Sea, Netherlands
Afstand tot: N 101 km
Gewijzigd: 04-Mar-2021 03:25
Grotendeels bewolkt  
Grotendeels bewolkt  
   Wind: Noorden 13 km/h
Wind: Noorden 13 km/h
Temperatuur: 3°C
Voelt als: -1°C
Dauwpunt: 2°C
Vochtigheid: 93%
Barometer: 1024 hPa
Bewolking: Grotendeels bewolkt
Zicht: meer dan 10 km
Bewolking: Licht bewolkt 500 ft,
Gedeeltelijk bewolkt 700 ft,
Grotendeels bewolkt 800 ft
EHMG 040225Z AUTO 01007KT 9999 FEW005 SCT007 BKN008 03/02 Q1024
EHDL - Deelen Rnlafb, Netherlands
Afstand tot: ZO 102 km
Gewijzigd: 04-Mar-2021 03:55
Nevel, Bewolking  
Nevel, Bewolking  
   Wind: NNW 7.4 km/h
Wind: NNW 7.4 km/h
Temperatuur: 3°C
Voelt als: 1°C
Dauwpunt: 3°C
Vochtigheid: 100%
Barometer: 1022 hPa
Bewolking: Bewolking
Zicht: 2 km
Bewolking: Bewolking 100 ft
EHDL 040255Z AUTO 33004KT 290V040 1900 R20/1100N BR OVC001 03/03 Q1022 RED
EHPG - P11-B Sea, Netherlands
Afstand tot: WZW 106 km
Gewijzigd: 04-Mar-2021 03:25
Bewolking  
Bewolking  
   Wind: Noorden 9.3 km/h
Wind: Noorden 9.3 km/h
Temperatuur: 5°C
Voelt als: 3°C
Dauwpunt: 3°C
Vochtigheid: 87%
Barometer: 1023 hPa
Bewolking: Bewolking
Zicht: 6 km
Bewolking: Gedeeltelijk bewolkt 500 ft,
Bewolking 600 ft
EHPG 040225Z AUTO 35005KT 270V070 6000 SCT005 OVC006 05/03 Q1023
EHMA - Awg-1 Sea, Netherlands
Afstand tot: NO 116 km
Gewijzigd: 04-Mar-2021 03:25
Grotendeels bewolkt  
Grotendeels bewolkt  
   Wind: Noorden 14.8 km/h
Wind: Noorden 14.8 km/h
Temperatuur: 3°C
Voelt als: -1°C
Dauwpunt: 2°C
Vochtigheid: 93%
Barometer: 1023 hPa
Bewolking: Grotendeels bewolkt
Zicht: meer dan 10 km
Bewolking: Gedeeltelijk bewolkt 300 ft,
Grotendeels bewolkt 400 ft,
Grotendeels bewolkt 500 ft
EHMA 040225Z AUTO 01008KT 9999 SCT003 BKN004 BKN005 03/02 Q1023
EHSC - Goeree Le Sea, Netherlands
Afstand tot: ZW 116 km
Gewijzigd: 04-Mar-2021 03:25
Nevel  
Nevel  
   Wind: Noorden 9.3 km/h
Wind: Noorden 9.3 km/h
Temperatuur: 4°C
Voelt als: 2°C
Dauwpunt: 4°C
Vochtigheid: 100%
Barometer: 1023 hPa
Zicht: 2 km
EHSC 040225Z AUTO 01005KT 2200 BR ///////// 04/04 Q1023 W05/H3
EHJR - K13-A Sea, Netherlands
Afstand tot: WNW 120 km
Gewijzigd: 04-Mar-2021 03:25
  
  
   Wind: NNO 11.1 km/h
Wind: NNO 11.1 km/h
Temperatuur: 4°C
Voelt als: 1°C
Dauwpunt: 3°C
Vochtigheid: 93%
Barometer: 1024 hPa
EHJR 040225Z AUTO 02006KT //// // ///////// 04/03 Q1024 RE// W///H5
EHGG - Groningen/Eelde, Netherlands
Afstand tot: ONO 126 km
Gewijzigd: 04-Mar-2021 03:25
Nevel, Bewolking  
Nevel, Bewolking  
   Wind: NW 11.1 km/h
Wind: NW 11.1 km/h
Temperatuur: 3°C
Voelt als: 0°C
Dauwpunt: 2°C
Vochtigheid: 93%
Barometer: 1023 hPa
Bewolking: Bewolking
Zicht: 3 km
Bewolking: Gedeeltelijk bewolkt 400 ft,
Bewolking 500 ft
EHGG 040225Z AUTO 32006KT 270V350 3300 BR SCT004 OVC005 03/02 Q1023
EHGR - Gilze-Rijen Rnla, Netherlands
Afstand tot: Z 128 km
Gewijzigd: 04-Mar-2021 03:55
Nevel, Bewolking  
Nevel, Bewolking  
   Wind: Noorden 5.6 km/h
Wind: Noorden 5.6 km/h
Temperatuur: 4°C
Voelt als: 3°C
Dauwpunt: 4°C
Vochtigheid: 100%
Barometer: 1023 hPa
Bewolking: Bewolking
Zicht: 1 km
Bewolking: Bewolking
EHGR 040255Z AUTO 01003KT 300V040 1000 BR VV000 04/04 Q1023 AMB
EHSA - Euro Platform, Netherlands
Afstand tot: ZW 130 km
Gewijzigd: 04-Mar-2021 03:25
Nevel  
Nevel  
   Wind: NNW 9.3 km/h
Wind: NNW 9.3 km/h
Temperatuur: 5°C
Voelt als: 3°C
Dauwpunt: 4°C
Vochtigheid: 93%
Barometer: 1023 hPa
Zicht: 4 km
EHSA 040225Z AUTO 34005KT 4000 BR ///////// 05/04 Q1023 W04/H3
EHVK - Volkel Rnlafb, Netherlands
Afstand tot: ZZO 135 km
Gewijzigd: 04-Mar-2021 03:55
Light, Bewolking  
Light, Bewolking  
   Wind: Noorden 7.4 km/h
Wind: Noorden 7.4 km/h
Temperatuur: 4°C
Voelt als: 2°C
Dauwpunt: 4°C
Vochtigheid: 100%
Barometer: 1022 hPa
Bewolking: Bewolking
Zicht: 0 km
Bewolking: Bewolking
EHVK 040255Z AUTO 01004KT 330V040 0350 -UP OVC000 04/04 Q1022 RED
EHWO - Woensdrecht Rnla, Netherlands
Afstand tot: ZZW 144 km
Gewijzigd: 04-Mar-2021 03:55
Nevel, Bewolking  
Nevel, Bewolking  
   Wind: Noorden 5.6 km/h
Wind: Noorden 5.6 km/h
Temperatuur: 5°C
Voelt als: 4°C
Dauwpunt: 4°C
Vochtigheid: 93%
Barometer: 1022 hPa
Bewolking: Bewolking
Zicht: 1 km
Bewolking: Grotendeels bewolkt 100 ft,
Bewolking 200 ft
EHWO 040255Z AUTO 36003KT 290V040 1000 BR BKN001 OVC002 05/04 Q1022 RED
EHEH - Eindhoven Rnlafb, Netherlands
Afstand tot: ZZO 146 km
Gewijzigd: 04-Mar-2021 03:25
Mist, Grotendeels bewolkt  
Mist, Grotendeels bewolkt  
   Wind: NNW 7.4 km/h
Wind: NNW 7.4 km/h
Temperatuur: 4°C
Voelt als: 2°C
Dauwpunt: 4°C
Vochtigheid: 100%
Barometer: 1023 hPa
Bewolking: Grotendeels bewolkt
Zicht: 1 km
Bewolking: Grotendeels bewolkt,
Licht bewolkt 1500 ft
EHEH 040225Z AUTO 34004KT 270V050 0500 FG BKN000 FEW015CB 04/04 Q1023 RED
EDLV - Niederrhein, Germany
Afstand tot: ZO 154 km
Gewijzigd: 02-Mar-2021 15:20
Verouderd
Helder  
Helder  
   Wind: ZO 9.3 km/h
Wind: ZO 9.3 km/h
Temperatuur: 15°C
Dauwpunt: 3°C
Vochtigheid: 45%
Barometer: 1030 hPa
Zicht: meer dan 10 km
Bewolking: Helder
EDLV 021420Z 14005KT 110V190 CAVOK 15/03 Q1030
 

Script ontwikkeld door  Saratoga-weather.org Aangepast voor de template door  Weerstation Leuven

U vindt ons ook hier:

Vereniging voor Weerkunde en Klimatologie

Het Weer Aktueel

WOW Nederland KNMI

UK Metoffice

European Weather Network

WeatherCloud

Weather Underground

Benelux Weer Netwerk

AWEKAS

WeatherlinkIP

Citizen Weather Observer Program (CWOP)

HAMweather, WeatherForYou, PWS Weather

        

Apparatuur in gebruik:

Weerstation
Davis - Vantage Veu

Weerprogramma
Meteobridge

Weercomputer
Carambola2 - MeteroBridge Pro (black)

Webleverancier
1Eurohosting

Hardwareleverancier 1
Uurwerk- & Meteospecialist Vlasma

Hardwareleverancier 2
Weerhuisje

Davis - Vantage Veu

Meteobridge

Carambola2 - MeteroBridge Pro (black)

1Eurohosting

Uurwerk- & Meteospecialist Vlasma

Weerhuisje


Alles over het weer rondom het weerstation van Meteo Oudkarspel, vind je hier. Dus alles onder 1 dak.

Everything about the weather around the Meteo Oudkarspel weather station can be found here. So everything under one roof..

Dus kom regelmatig terug, So come back regularly.


# #---------------------- version history # 3.20 2015-10-12 release 2.8b version